createdAt,value
2018-09-23T00:03:40.772Z,11.87
2018-09-23T00:07:44.464Z,8.53
2018-09-23T00:11:48.136Z,13.33
2018-09-23T00:15:51.808Z,12.30
2018-09-23T00:19:55.488Z,13.23
2018-09-23T00:23:59.183Z,12.07
2018-09-23T00:28:02.993Z,12.03
2018-09-23T00:32:06.797Z,10.87
2018-09-23T00:36:10.452Z,12.17
2018-09-23T00:40:14.149Z,10.57
2018-09-23T00:44:17.840Z,12.37
2018-09-23T00:48:21.531Z,11.57
2018-09-23T00:52:25.266Z,13.43
2018-09-23T00:56:29.959Z,13.20
2018-09-23T01:00:33.656Z,11.47
2018-09-23T01:04:37.491Z,12.43
2018-09-23T01:08:41.160Z,14.73
2018-09-23T01:12:44.849Z,13.80
2018-09-23T01:16:48.580Z,12.77
2018-09-23T01:20:52.263Z,12.83
2018-09-23T01:24:56.805Z,14.00
2018-09-23T01:29:00.520Z,14.20
2018-09-23T01:33:10.688Z,14.10
2018-09-23T01:37:14.356Z,14.57
2018-09-23T01:41:18.007Z,14.30
2018-09-23T01:45:21.732Z,13.77
2018-09-23T01:49:25.503Z,12.77
2018-09-23T01:53:29.229Z,14.60
2018-09-23T01:57:32.948Z,17.23
2018-09-23T02:01:36.677Z,18.43
2018-09-23T02:05:40.369Z,17.20
2018-09-23T02:09:44.150Z,19.60
2018-09-23T02:13:47.867Z,20.20
2018-09-23T02:17:51.703Z,20.77
2018-09-23T02:21:55.368Z,18.37
2018-09-23T02:25:59.057Z,22.30
2018-09-23T02:30:02.767Z,26.53
2018-09-23T02:34:06.541Z,24.00
2018-09-23T02:38:10.228Z,24.03
2018-09-23T02:42:13.924Z,22.60
2018-09-23T02:46:17.657Z,27.10
2018-09-23T02:50:21.379Z,25.33
2018-09-23T02:54:25.072Z,26.13
2018-09-23T02:58:28.791Z,24.43
2018-09-23T03:02:32.473Z,23.83
2018-09-23T03:06:36.125Z,25.17
2018-09-23T03:10:39.815Z,25.13
2018-09-23T03:14:43.605Z,29.53
2018-09-23T03:18:47.361Z,24.67
2018-09-23T03:22:51.200Z,21.90
2018-09-23T03:26:54.845Z,27.30
2018-09-23T03:30:58.619Z,28.10
2018-09-23T03:35:02.297Z,23.17
2018-09-23T03:39:07.151Z,22.57
2018-09-23T03:43:10.865Z,24.50
2018-09-23T03:47:14.626Z,23.30
2018-09-23T03:51:18.306Z,23.83
2018-09-23T03:55:21.978Z,24.77
2018-09-23T03:59:25.658Z,21.80
2018-09-23T04:03:29.349Z,26.07
2018-09-23T04:07:33.016Z,25.57
2018-09-23T04:11:36.665Z,24.53
2018-09-23T04:15:40.325Z,23.70
2018-09-23T04:19:44.129Z,28.37
2018-09-23T04:23:47.873Z,24.30
2018-09-23T04:27:51.743Z,21.33
2018-09-23T04:31:55.423Z,20.70
2018-09-23T04:35:59.434Z,22.77
2018-09-23T04:40:03.312Z,20.30
2018-09-23T04:44:07.071Z,22.10
2018-09-23T04:48:10.803Z,20.27
2018-09-23T04:52:14.452Z,19.67
2018-09-23T04:56:18.265Z,20.83
2018-09-23T05:00:22.060Z,20.97
2018-09-23T05:04:25.891Z,27.10
2018-09-23T05:08:29.578Z,18.67
2018-09-23T05:12:33.208Z,20.03
2018-09-23T05:16:36.970Z,22.27
2018-09-23T05:20:40.724Z,25.47
2018-09-23T05:24:44.418Z,19.87
2018-09-23T05:28:48.104Z,20.10
2018-09-23T05:32:51.772Z,20.93
2018-09-23T05:36:55.440Z,22.17
2018-09-23T05:40:59.191Z,24.17
2018-09-23T05:45:02.860Z,21.10
2018-09-23T05:49:06.903Z,20.93
2018-09-23T05:53:10.613Z,19.87
2018-09-23T05:57:14.232Z,19.63
2018-09-23T06:01:17.968Z,20.13
2018-09-23T06:05:21.669Z,17.77
2018-09-23T06:09:25.385Z,18.87
2018-09-23T06:13:29.066Z,23.80
2018-09-23T06:17:32.708Z,21.67
2018-09-23T06:21:36.376Z,17.30
2018-09-23T06:25:40.090Z,18.07
2018-09-23T06:29:43.760Z,18.97
2018-09-23T06:33:47.485Z,15.30
2018-09-23T06:37:51.147Z,19.73
2018-09-23T06:41:54.837Z,22.57
2018-09-23T06:45:58.524Z,20.40
2018-09-23T06:50:02.194Z,18.13
2018-09-23T06:54:05.879Z,17.27
2018-09-23T06:58:09.568Z,15.43
2018-09-23T07:02:13.217Z,16.63
2018-09-23T07:06:16.933Z,20.57
2018-09-23T07:10:20.655Z,19.40
2018-09-23T07:14:24.384Z,16.10
2018-09-23T07:18:28.143Z,18.00
2018-09-23T07:22:31.791Z,16.87
2018-09-23T07:26:35.529Z,14.90
2018-09-23T07:30:39.316Z,13.90
2018-09-23T07:34:43.037Z,16.33
2018-09-23T07:38:46.771Z,16.10
2018-09-23T07:42:50.408Z,16.53
2018-09-23T07:46:54.179Z,16.03
2018-09-23T07:50:57.852Z,20.07
2018-09-23T07:55:01.519Z,14.63
2018-09-23T07:59:05.204Z,15.13
2018-09-23T08:03:08.855Z,12.03
2018-09-23T08:07:12.516Z,16.23
2018-09-23T08:11:16.205Z,15.20
2018-09-23T08:15:19.932Z,14.57
2018-09-23T08:19:23.675Z,15.27
2018-09-23T08:23:27.344Z,13.53
2018-09-23T08:27:31.037Z,16.47
2018-09-23T08:31:34.875Z,12.53
2018-09-23T08:35:38.717Z,14.57
2018-09-23T08:39:42.713Z,14.60
2018-09-23T08:43:47.983Z,13.73
2018-09-23T08:47:51.619Z,12.10
2018-09-23T08:51:55.429Z,14.10
2018-09-23T08:55:59.034Z,10.63
2018-09-23T09:00:02.707Z,9.10
2018-09-23T09:04:06.513Z,9.03
2018-09-23T09:08:10.149Z,11.07
2018-09-23T09:12:13.825Z,8.50
2018-09-23T09:16:17.509Z,10.23
2018-09-23T09:20:21.191Z,14.27
2018-09-23T09:24:24.872Z,13.90
2018-09-23T09:28:28.524Z,9.30
2018-09-23T09:32:32.231Z,10.50
2018-09-23T09:36:35.888Z,8.43
2018-09-23T09:40:39.576Z,10.93
2018-09-23T09:44:43.276Z,12.50
2018-09-23T09:48:46.913Z,12.80
2018-09-23T09:52:50.606Z,8.80
2018-09-23T09:56:54.287Z,10.53
2018-09-23T10:00:58.065Z,14.73
2018-09-23T10:05:01.814Z,12.93
2018-09-23T10:09:07.783Z,8.03
2018-09-23T10:13:11.457Z,11.70
2018-09-23T10:17:15.140Z,12.87
2018-09-23T10:21:18.876Z,14.57
2018-09-23T10:25:22.580Z,12.53
2018-09-23T10:29:26.222Z,13.43
2018-09-23T10:33:29.921Z,12.60
2018-09-23T10:37:33.596Z,9.33
2018-09-23T10:41:37.274Z,13.83
2018-09-23T10:45:40.980Z,14.63
2018-09-23T10:49:44.624Z,12.17
2018-09-23T10:53:48.302Z,14.87
2018-09-23T10:57:52.048Z,14.20
2018-09-23T11:01:55.788Z,13.93
2018-09-23T11:05:59.529Z,13.07
2018-09-23T11:10:03.172Z,14.33
2018-09-23T11:14:06.847Z,12.63
2018-09-23T11:18:10.508Z,19.67
2018-09-23T11:22:14.192Z,14.03
2018-09-23T11:26:17.869Z,17.43
2018-09-23T11:30:21.519Z,14.47
2018-09-23T11:34:25.327Z,17.87
2018-09-23T11:38:29.011Z,12.07
2018-09-23T11:42:32.672Z,17.57
2018-09-23T11:46:36.407Z,12.23
2018-09-23T11:50:40.134Z,16.13
2018-09-23T11:54:43.860Z,16.33
2018-09-23T11:58:47.591Z,15.10
2018-09-23T12:02:51.315Z,16.70
2018-09-23T12:06:54.992Z,15.43
2018-09-23T12:10:58.765Z,17.33
2018-09-23T12:15:02.417Z,17.30
2018-09-23T12:19:06.194Z,16.47
2018-09-23T12:23:09.853Z,17.83
2018-09-23T12:27:13.654Z,20.10
2018-09-23T12:31:18.137Z,14.17
2018-09-23T12:35:21.852Z,16.87
2018-09-23T12:39:29.166Z,16.07
2018-09-23T12:43:32.854Z,20.17
2018-09-23T12:47:36.617Z,17.80
2018-09-23T12:51:40.314Z,14.47
2018-09-23T12:55:44.007Z,14.53
2018-09-23T12:59:47.684Z,17.20
2018-09-23T13:03:51.370Z,11.17
2018-09-23T13:07:55.055Z,13.00
2018-09-23T13:11:58.751Z,13.87
2018-09-23T13:16:02.469Z,10.60
2018-09-23T13:20:06.336Z,9.83
2018-09-23T13:24:09.994Z,8.67
2018-09-23T13:28:13.628Z,6.63
2018-09-23T13:32:17.324Z,7.13
2018-09-23T13:36:21.019Z,5.63
2018-09-23T13:40:24.699Z,6.37
2018-09-23T13:44:28.367Z,8.03
2018-09-23T13:48:32.040Z,4.77
2018-09-23T13:52:35.840Z,5.57
2018-09-23T13:56:39.619Z,9.00
2018-09-23T14:00:43.311Z,8.33
2018-09-23T14:04:47.022Z,13.40
2018-09-23T14:08:50.732Z,13.07
2018-09-23T14:12:54.411Z,10.23
2018-09-23T14:16:58.098Z,10.53
2018-09-23T14:21:01.796Z,12.73
2018-09-23T14:25:05.523Z,11.93
2018-09-23T14:29:09.335Z,11.93
2018-09-23T14:33:13.069Z,12.03
2018-09-23T14:37:16.739Z,12.37
2018-09-23T14:41:20.371Z,14.80
2018-09-23T14:45:24.033Z,11.53
2018-09-23T14:49:27.724Z,7.77
2018-09-23T14:53:31.363Z,9.40
2018-09-23T14:57:35.012Z,6.53
2018-09-23T15:01:38.723Z,10.90
2018-09-23T15:05:42.381Z,9.37
2018-09-23T15:09:46.072Z,9.90
2018-09-23T15:13:49.784Z,6.27
2018-09-23T15:17:53.364Z,6.27
2018-09-23T15:21:57.191Z,7.90
2018-09-23T15:26:00.827Z,7.17
2018-09-23T15:30:04.545Z,7.53
2018-09-23T15:34:08.291Z,5.47
2018-09-23T15:38:11.908Z,5.33
2018-09-23T15:42:15.585Z,9.70
2018-09-23T15:46:19.240Z,5.27
2018-09-23T15:50:22.892Z,5.53
2018-09-23T15:54:26.600Z,8.37
2018-09-23T15:58:30.477Z,4.97
2018-09-23T16:02:34.127Z,6.97
2018-09-23T16:06:37.788Z,10.10
2018-09-23T16:10:41.487Z,5.97
2018-09-23T16:14:45.681Z,9.47
2018-09-23T16:18:49.470Z,6.13
2018-09-23T16:22:53.036Z,8.07
2018-09-23T16:26:56.724Z,9.23
2018-09-23T16:31:00.440Z,9.33
2018-09-23T16:35:04.195Z,8.47
2018-09-23T16:39:09.458Z,11.70
2018-09-23T16:43:13.210Z,9.77
2018-09-23T16:47:16.867Z,11.00
2018-09-23T16:51:20.569Z,11.57
2018-09-23T16:55:24.224Z,9.20
2018-09-23T16:59:27.853Z,7.40
2018-09-23T17:03:31.625Z,6.00
2018-09-23T17:07:35.265Z,9.00
2018-09-23T17:11:39.201Z,9.53
2018-09-23T17:15:42.877Z,8.23
2018-09-23T17:19:46.500Z,8.37
2018-09-23T17:23:50.146Z,6.70
2018-09-23T17:27:54.603Z,6.33
2018-09-23T17:31:58.288Z,3.70
2018-09-23T17:36:01.958Z,5.67
2018-09-23T17:40:05.673Z,5.33
2018-09-23T17:44:09.431Z,3.73
2018-09-23T17:48:13.215Z,3.63
2018-09-23T17:52:16.949Z,7.97
2018-09-23T17:56:20.607Z,3.67
2018-09-23T18:00:24.249Z,6.17
2018-09-23T18:04:27.900Z,4.30
2018-09-23T18:08:31.569Z,3.70
2018-09-23T18:12:35.252Z,5.63
2018-09-23T18:16:39.064Z,3.53
2018-09-23T18:20:42.711Z,5.23
2018-09-23T18:24:46.365Z,7.50
2018-09-23T18:28:50.285Z,3.77
2018-09-23T18:32:54.044Z,7.90
2018-09-23T18:36:57.795Z,6.83
2018-09-23T18:41:01.428Z,4.07
2018-09-23T18:45:05.172Z,4.50
2018-09-23T18:49:08.834Z,2.63
2018-09-23T18:53:17.774Z,3.63
2018-09-23T18:57:21.441Z,5.20
2018-09-23T19:01:25.075Z,4.07
2018-09-23T19:05:28.737Z,2.80
2018-09-23T19:09:32.409Z,2.70
2018-09-23T19:13:41.387Z,3.10
2018-09-23T19:17:45.045Z,4.33
2018-09-23T19:21:48.672Z,3.00
2018-09-23T19:25:52.323Z,7.17
2018-09-23T19:29:55.980Z,2.80
2018-09-23T19:33:59.792Z,3.77
2018-09-23T19:38:03.461Z,3.80
2018-09-23T19:42:07.461Z,3.43
2018-09-23T19:46:11.116Z,4.17
2018-09-23T19:50:14.808Z,8.70
2018-09-23T19:54:18.463Z,7.10
2018-09-23T19:58:22.123Z,7.07
2018-09-23T20:02:25.747Z,8.07
2018-09-23T20:06:29.468Z,5.17
2018-09-23T20:10:33.194Z,6.03
2018-09-23T20:14:36.860Z,3.50
2018-09-23T20:18:40.525Z,4.33
2018-09-23T20:22:44.241Z,4.80
2018-09-23T20:26:47.896Z,5.83
2018-09-23T20:30:51.549Z,5.43
2018-09-23T20:34:55.256Z,7.77
2018-09-23T20:38:58.947Z,8.20
2018-09-23T20:43:02.672Z,6.40
2018-09-23T20:47:06.508Z,10.57
2018-09-23T20:51:10.209Z,5.43
2018-09-23T20:55:14.193Z,6.77
2018-09-23T20:59:17.919Z,6.40
2018-09-23T21:03:21.566Z,5.63
2018-09-23T21:07:25.236Z,7.03
2018-09-23T21:11:28.914Z,4.67
2018-09-23T21:15:32.573Z,9.47
2018-09-23T21:19:36.377Z,7.13
2018-09-23T21:23:40.001Z,5.90
2018-09-23T21:27:43.672Z,8.70
2018-09-23T21:31:47.365Z,4.47
2018-09-23T21:35:51.027Z,6.77
2018-09-23T21:39:54.689Z,10.13
2018-09-23T21:43:58.371Z,4.93
2018-09-23T21:48:02.329Z,6.60
2018-09-23T21:52:05.997Z,6.43
2018-09-23T21:56:09.690Z,12.03
2018-09-23T22:00:13.351Z,7.70
2018-09-23T22:04:16.989Z,9.33
2018-09-23T22:08:20.640Z,5.10
2018-09-23T22:12:24.340Z,7.37
2018-09-23T22:16:28.068Z,4.13
2018-09-23T22:20:31.723Z,5.43
2018-09-23T22:24:35.482Z,4.73
2018-09-23T22:28:39.143Z,4.77
2018-09-23T22:32:42.828Z,9.53
2018-09-23T22:36:46.520Z,6.67
2018-09-23T22:40:50.176Z,7.17
2018-09-23T22:44:53.838Z,6.60
2018-09-23T22:48:57.487Z,6.70
2018-09-23T22:53:01.161Z,6.67
2018-09-23T22:57:04.832Z,7.53
2018-09-23T23:01:08.515Z,4.83
2018-09-23T23:05:12.123Z,11.87
2018-09-23T23:09:15.766Z,4.40
2018-09-23T23:13:19.533Z,7.77
2018-09-23T23:17:23.217Z,6.43
2018-09-23T23:21:26.908Z,7.80
2018-09-23T23:25:30.628Z,3.73
2018-09-23T23:29:34.333Z,6.03
2018-09-23T23:33:38.017Z,6.30
2018-09-23T23:37:41.688Z,6.43
2018-09-23T23:41:45.356Z,8.63
2018-09-23T23:45:48.993Z,6.60
2018-09-23T23:49:52.659Z,5.93
2018-09-23T23:53:56.380Z,6.93
2018-09-23T23:58:00.049Z,15.70
